Time;durP1;ratioP1;P1;durP2;ratioP2;P2;SDS_P1;SDS_P2;PMS_P1;PMS_P2;Temp;Humidity;BMP_temperature;BMP_pressure;BME280_temperature;BME280_humidity;BME280_pressure;Samples;Min_cycle;Max_cycle;Signal;HPM_P1;HPM_P2
2021/12/09 00:00:52;;;;;;;17.98;10.30;;;;;;;-0.09;100.00;100055.22;5080329;28;20160;-86
2021/12/09 00:03:19;;;;;;;18.10;9.98;;;;;;;-0.09;100.00;100050.84;5067781;28;20406;-86
2021/12/09 00:05:46;;;;;;;20.58;10.30;;;;;;;-0.11;100.00;100042.19;5079637;28;20106;-86
2021/12/09 00:08:12;;;;;;;15.65;9.70;;;;;;;-0.15;100.00;100042.28;5079962;28;20029;-86
2021/12/09 00:10:38;;;;;;;14.98;9.68;;;;;;;-0.18;100.00;100044.94;5068156;28;20065;-86
2021/12/09 00:13:04;;;;;;;17.52;9.65;;;;;;;-0.26;100.00;100045.09;5084308;28;20028;-85
2021/12/09 00:15:30;;;;;;;17.77;8.80;;;;;;;-0.26;100.00;100045.09;5082195;28;20071;-86
2021/12/09 00:17:55;;;;;;;20.02;9.45;;;;;;;-0.36;100.00;100036.56;5050325;28;20076;-86
2021/12/09 00:20:21;;;;;;;17.92;9.63;;;;;;;-0.35;100.00;100037.44;5068479;28;20036;-86
2021/12/09 00:22:46;;;;;;;15.73;9.68;;;;;;;-0.32;100.00;100053.06;5059754;28;20025;-86
2021/12/09 00:25:14;;;;;;;21.15;10.55;;;;;;;-0.29;100.00;100058.25;5076853;28;20034;-86
2021/12/09 00:27:40;;;;;;;15.68;9.73;;;;;;;-0.25;100.00;100049.44;5091136;28;20035;-86
2021/12/09 00:30:06;;;;;;;22.17;9.98;;;;;;;-0.31;100.00;100034.72;5083721;28;20024;-86
2021/12/09 00:32:32;;;;;;;19.88;9.65;;;;;;;-0.23;100.00;100050.28;5073673;28;20028;-85
2021/12/09 00:34:57;;;;;;;20.77;9.27;;;;;;;-0.27;100.00;100041.63;5081861;28;20027;-86
2021/12/09 00:37:30;;;;;;;20.05;10.25;;;;;;;-0.23;100.00;100052.03;5084619;28;20372;-85
2021/12/09 00:39:55;;;;;;;18.08;9.65;;;;;;;-0.30;100.00;100038.19;5090532;28;20082;-86
2021/12/09 00:42:24;;;;;;;18.67;10.00;;;;;;;-0.29;100.00;100045.16;5071859;28;20650;-85
2021/12/09 00:44:51;;;;;;;19.80;9.77;;;;;;;-0.26;100.00;100053.78;5077071;28;20027;-86
2021/12/09 00:47:17;;;;;;;21.60;9.48;;;;;;;-0.31;100.00;100039.94;5079753;28;20031;-86
2021/12/09 00:49:42;;;;;;;15.48;8.98;;;;;;;-0.26;100.00;100052.94;5071897;28;20374;-86
2021/12/09 00:52:08;;;;;;;18.20;9.45;;;;;;;-0.26;100.00;100053.78;5071469;28;20055;-85
2021/12/09 00:54:34;;;;;;;17.25;8.70;;;;;;;-0.31;100.00;100046.94;5077316;28;20115;-85
2021/12/09 00:57:00;;;;;;;16.13;9.13;;;;;;;-0.33;100.00;100041.75;5091504;28;20039;-85
2021/12/09 00:59:25;;;;;;;17.20;8.27;;;;;;;-0.26;100.00;100053.78;5073136;28;20025;-85
2021/12/09 01:01:51;;;;;;;18.65;8.40;;;;;;;-0.29;100.00;100047.78;5072122;28;20121;-86
2021/12/09 01:04:16;;;;;;;12.77;7.88;;;;;;;-0.26;100.00;100064.25;5084148;28;20024;-86
2021/12/09 01:06:41;;;;;;;18.70;8.77;;;;;;;-0.27;100.00;100066.91;5091890;28;20020;-86
2021/12/09 01:09:07;;;;;;;19.13;9.13;;;;;;;-0.26;100.00;100052.94;5081837;28;20031;-85
2021/12/09 01:11:33;;;;;;;14.50;8.05;;;;;;;-0.22;100.00;100069.44;5077677;28;20416;-86
2021/12/09 01:13:58;;;;;;;20.98;9.73;;;;;;;-0.22;100.00;100075.53;5079855;28;20261;-86
2021/12/09 01:16:24;;;;;;;18.65;7.97;;;;;;;-0.27;100.00;100067.75;5079082;28;20032;-85
2021/12/09 01:18:49;;;;;;;17.30;9.27;;;;;;;-0.26;100.00;100053.78;5073270;28;20055;-86
2021/12/09 01:21:15;;;;;;;19.98;8.23;;;;;;;-0.26;100.00;100058.16;5090748;28;20031;-86
2021/12/09 01:23:41;;;;;;;17.25;8.40;;;;;;;-0.23;100.00;100073.81;5074675;28;20036;-86
2021/12/09 01:26:07;;;;;;;21.23;8.50;;;;;;;-0.24;100.00;100060.78;5090481;28;20131;-86
2021/12/09 01:28:41;;;;;;;13.50;7.72;;;;;;;-0.26;100.00;100069.47;5090626;28;20032;-86
2021/12/09 01:31:07;;;;;;;15.07;8.00;;;;;;;-0.28;100.00;100065.19;5079771;28;20385;-86
2021/12/09 01:33:34;;;;;;;17.35;7.93;;;;;;;-0.28;100.00;100068.66;5053797;28;20033;-86
2021/12/09 01:36:00;;;;;;;15.40;8.35;;;;;;;-0.27;100.00;100074.75;5088368;28;20051;-85
2021/12/09 01:38:29;;;;;;;17.75;8.27;;;;;;;-0.30;100.00;100062.59;5090283;28;20021;-85
2021/12/09 01:40:55;;;;;;;14.48;7.78;;;;;;;-0.26;100.00;100079.09;5081045;28;20097;-86
2021/12/09 01:43:21;;;;;;;13.20;7.43;;;;;;;-0.27;100.00;100078.22;5070270;28;20203;-86
2021/12/09 01:45:46;;;;;;;20.08;8.40;;;;;;;-0.33;100.00;100069.66;5081709;28;20111;-86
2021/12/09 01:48:12;;;;;;;17.63;8.07;;;;;;;-0.31;100.00;100081.78;5070076;28;20025;-86
2021/12/09 01:50:37;;;;;;;15.10;8.13;;;;;;;-0.36;100.00;100078.41;5081192;28;20115;-85
2021/12/09 01:53:04;;;;;;;17.13;8.18;;;;;;;-0.41;100.00;100063.69;5084345;28;20389;-86
2021/12/09 01:55:30;;;;;;;18.48;7.93;;;;;;;-0.42;100.00;100061.97;5088585;28;20028;-84
2021/12/09 01:57:56;;;;;;;14.32;7.88;;;;;;;-0.44;100.00;100063.75;5090670;28;20028;-85
2021/12/09 02:00:25;;;;;;;16.58;8.15;;;;;;;-0.42;100.00;100073.28;5088695;28;20028;-85
2021/12/09 02:02:52;;;;;;;15.48;8.63;;;;;;;-0.45;100.00;100056.81;5069981;28;20028;-85
2021/12/09 02:05:17;;;;;;;19.13;8.95;;;;;;;-0.49;100.00;100053.38;5070661;28;20055;-85
2021/12/09 02:07:43;;;;;;;15.18;9.38;;;;;;;-0.43;100.00;100074.16;5053784;28;20025;-85
2021/12/09 02:10:12;;;;;;;18.08;8.80;;;;;;;-0.51;100.00;100061.22;5069587;28;20024;-85
2021/12/09 02:12:38;;;;;;;16.35;7.95;;;;;;;-0.41;100.00;100072.41;5052247;28;20050;-85
2021/12/09 02:15:04;;;;;;;15.10;7.80;;;;;;;-0.44;100.00;100068.97;5081687;28;20039;-85
2021/12/09 02:17:31;;;;;;;18.38;7.68;;;;;;;-0.43;100.00;100070.69;5083116;28;20074;-84
2021/12/09 02:20:00;;;;;;;21.63;7.82;;;;;;;-0.47;100.00;100058.56;5077720;28;20369;-85
2021/12/09 02:22:27;;;;;;;14.18;7.75;;;;;;;-0.44;100.00;100063.75;5070021;28;20047;-85
2021/12/09 02:24:56;;;;;;;13.27;8.02;;;;;;;-0.44;100.00;100068.97;5078399;28;20028;-85
2021/12/09 02:27:23;;;;;;;15.00;8.05;;;;;;;-0.48;100.00;100056.84;5089913;28;20120;-85
2021/12/09 02:29:50;;;;;;;20.17;8.75;;;;;;;-0.47;100.00;100051.59;5078488;28;20043;-85
2021/12/09 02:32:15;;;;;;;20.35;8.45;;;;;;;-0.53;100.00;100049.97;5069609;28;20032;-85
2021/12/09 02:34:41;;;;;;;15.95;8.10;;;;;;;-0.48;100.00;100052.47;5076423;28;20028;-85
2021/12/09 02:37:09;;;;;;;15.57;7.63;;;;;;;-0.46;100.00;100055.06;5069155;28;20032;-86
2021/12/09 02:39:35;;;;;;;16.33;8.73;;;;;;;-0.50;100.00;100059.50;5069611;28;20535;-86
2021/12/09 02:42:00;;;;;;;16.90;8.57;;;;;;;-0.55;100.00;100051.72;5075414;28;20028;-86
2021/12/09 02:44:27;;;;;;;18.25;9.40;;;;;;;-0.59;100.00;100057.03;5086197;28;20366;-86
2021/12/09 02:46:55;;;;;;;18.27;9.50;;;;;;;-0.63;100.00;100052.75;5081318;28;20020;-86
2021/12/09 02:49:22;;;;;;;20.35;10.23;;;;;;;-0.62;100.00;100055.34;5087911;28;20035;-86
2021/12/09 02:51:49;;;;;;;17.13;9.07;;;;;;;-0.65;100.00;100059.78;5089634;28;20538;-86
2021/12/09 02:54:17;;;;;;;16.23;8.75;;;;;;;-0.64;100.00;100062.34;5085064;28;20073;-86
2021/12/09 02:56:44;;;;;;;18.75;8.48;;;;;;;-0.61;100.00;100064.91;5089070;28;20074;-86
2021/12/09 02:59:10;;;;;;;15.88;8.07;;;;;;;-0.67;100.00;100051.06;5058766;28;20424;-85
2021/12/09 03:01:46;;;;;;;18.65;8.32;;;;;;;-0.73;100.00;100057.28;5073622;28;20021;-86
2021/12/09 03:04:11;;;;;;;19.27;9.07;;;;;;;-0.72;100.00;100058.16;5075065;28;20028;-86
2021/12/09 03:06:40;;;;;;;15.88;7.60;;;;;;;-0.70;100.00;100072.91;5081799;28;20028;-86
2021/12/09 03:09:13;;;;;;;16.70;8.23;;;;;;;-0.71;100.00;100079.03;5078782;28;20017;-86
2021/12/09 03:11:39;;;;;;;15.27;7.80;;;;;;;-0.72;100.00;100072.06;5069135;28;20448;-86
2021/12/09 03:14:05;;;;;;;12.82;7.63;;;;;;;-0.70;100.00;100080.75;5069464;28;20024;-86
2021/12/09 03:16:31;;;;;;;14.10;6.90;;;;;;;-0.71;100.00;100086.88;5070148;28;20395;-86
2021/12/09 03:19:02;;;;;;;10.85;6.78;;;;;;;-0.79;100.00;100068.72;5071266;28;20089;-87
2021/12/09 03:21:36;;;;;;;13.45;6.25;;;;;;;-0.71;100.00;100097.34;5089404;28;20460;-86
2021/12/09 03:24:04;;;;;;;18.73;7.53;;;;;;;-0.68;100.00;100089.41;5071111;28;20032;-87
2021/12/09 03:26:33;;;;;;;17.27;6.45;;;;;;;-0.78;100.00;100077.41;5068766;28;20047;-87
2021/12/09 03:29:02;;;;;;;17.27;6.70;;;;;;;-0.78;100.00;100088.72;5081159;28;20036;-86
2021/12/09 03:31:28;;;;;;;10.80;6.18;;;;;;;-0.69;100.00;100099.91;5084876;28;20047;-87
2021/12/09 03:33:54;;;;;;;18.13;7.20;;;;;;;-0.72;100.00;100084.28;5071925;28;20028;-86
2021/12/09 03:36:20;;;;;;;14.20;6.80;;;;;;;-0.69;100.00;100095.53;5068657;28;20033;-86
2021/12/09 03:38:46;;;;;;;17.40;7.78;;;;;;;-0.76;100.00;100088.69;5051067;28;20048;-87
2021/12/09 03:41:11;;;;;;;17.38;7.57;;;;;;;-0.73;100.00;100103.47;5067662;28;20036;-86
2021/12/09 03:43:37;;;;;;;14.00;7.40;;;;;;;-0.77;100.00;100100.91;5082425;28;20054;-87
2021/12/09 03:46:03;;;;;;;15.57;6.20;;;;;;;-0.79;100.00;100107.91;5077726;28;20031;-86
2021/12/09 03:48:30;;;;;;;15.55;6.47;;;;;;;-0.73;100.00;100112.16;5069151;28;20356;-85
2021/12/09 03:50:55;;;;;;;19.20;6.20;;;;;;;-0.71;100.00;100115.63;5050007;28;20477;-84
2021/12/09 03:53:21;;;;;;;12.50;5.97;;;;;;;-0.70;100.00;100113.88;5069811;28;20086;-85
2021/12/09 03:55:47;;;;;;;10.20;5.65;;;;;;;-0.75;100.00;100106.13;5079789;28;20066;-85
2021/12/09 03:58:12;;;;;;;15.18;6.05;;;;;;;-0.79;100.00;100094.00;5075322;28;20515;-86
2021/12/09 04:00:38;;;;;;;15.10;6.43;;;;;;;-0.77;100.00;100094.81;5082602;28;20044;-86
2021/12/09 04:03:04;;;;;;;13.18;6.53;;;;;;;-0.74;100.00;100112.19;5080182;28;20020;-86
2021/12/09 04:05:30;;;;;;;22.50;7.28;;;;;;;-0.70;100.00;100106.03;5088311;28;20258;-87
2021/12/09 04:07:55;;;;;;;11.57;5.85;;;;;;;-0.76;100.00;100101.75;5074623;28;20029;-86
2021/12/09 04:10:20;;;;;;;12.00;5.85;;;;;;;-0.70;100.00;100106.03;5071482;28;20509;-86
2021/12/09 04:12:46;;;;;;;13.98;5.63;;;;;;;-0.72;100.00;100103.44;5068754;28;20423;-86
2021/12/09 04:15:11;;;;;;;11.43;6.18;;;;;;;-0.75;100.00;100098.28;5070363;28;20028;-86
2021/12/09 04:17:37;;;;;;;14.52;5.55;;;;;;;-0.71;100.00;100097.34;5069230;28;20472;-86
2021/12/09 04:20:07;;;;;;;13.20;5.45;;;;;;;-0.70;100.00;100111.25;5078121;28;20087;-86
2021/12/09 04:22:33;;;;;;;11.15;5.57;;;;;;;-0.74;100.00;100113.06;5086971;28;20032;-86
2021/12/09 04:24:58;;;;;;;17.15;5.78;;;;;;;-0.74;100.00;100114.81;5073774;28;20115;-86
2021/12/09 04:27:25;;;;;;;15.20;5.82;;;;;;;-0.76;100.00;100109.59;5068123;28;20044;-87
2021/12/09 04:29:51;;;;;;;12.88;6.13;;;;;;;-0.74;100.00;100120.03;5068423;28;20032;-84
2021/12/09 04:32:17;;;;;;;15.77;6.40;;;;;;;-0.78;100.00;100121.84;5083299;28;20103;-86
2021/12/09 04:34:44;;;;;;;13.93;6.63;;;;;;;-0.86;100.00;100113.25;5067227;28;20026;-85
2021/12/09 04:37:09;;;;;;;14.25;6.32;;;;;;;-0.82;100.00;100126.25;5079933;28;20416;-86
2021/12/09 04:39:34;;;;;;;18.13;6.30;;;;;;;-0.87;100.00;100122.84;5067590;28;20112;-85
2021/12/09 04:42:00;;;;;;;15.00;7.15;;;;;;;-0.82;100.00;100125.38;5078249;28;20062;-85
2021/12/09 04:44:25;;;;;;;13.55;5.38;;;;;;;-0.81;100.00;100133.19;5085654;28;20028;-84
2021/12/09 04:46:50;;;;;;;14.52;5.68;;;;;;;-0.79;100.00;100127.97;5073697;28;20420;-86
2021/12/09 04:49:16;;;;;;;14.43;5.13;;;;;;;-0.77;100.00;100132.25;5085654;28;20077;-85
2021/12/09 04:51:42;;;;;;;12.20;5.28;;;;;;;-0.75;100.00;100127.03;5086264;28;20039;-86
2021/12/09 04:54:08;;;;;;;9.43;5.57;;;;;;;-0.80;100.00;100126.22;5081725;28;20469;-86
2021/12/09 04:56:35;;;;;;;13.05;5.70;;;;;;;-0.81;100.00;100120.13;5067649;28;20024;-85
2021/12/09 04:59:00;;;;;;;13.63;5.72;;;;;;;-0.74;100.00;100131.34;5071335;28;20028;-86
2021/12/09 05:01:25;;;;;;;12.90;5.78;;;;;;;-0.79;100.00;100131.44;5084044;28;20025;-86
2021/12/09 05:03:58;;;;;;;12.90;5.63;;;;;;;-0.83;100.00;100121.06;5077369;28;20168;-86
2021/12/09 05:06:24;;;;;;;12.10;5.85;;;;;;;-0.75;100.00;100127.03;5072922;28;20028;-86
2021/12/09 05:08:51;;;;;;;14.52;6.43;;;;;;;-0.76;100.00;100114.81;5076039;28;20112;-86
2021/12/09 05:14:04;;;;;;;15.43;6.35;;;;;;;-0.72;100.00;100103.44;5074801;28;20032;-86
2021/12/09 05:16:29;;;;;;;12.80;6.18;;;;;;;-0.60;100.00;100129.34;5077412;28;20069;-86
2021/12/09 05:19:01;;;;;;;14.07;5.35;;;;;;;-0.61;100.00;100135.47;5069860;28;20436;-86
2021/12/09 05:21:37;;;;;;;12.63;5.10;;;;;;;-0.61;100.00;100130.25;5071154;28;20028;-86
2021/12/09 05:24:07;;;;;;;12.65;5.75;;;;;;;-0.67;100.00;100124.25;5081957;28;20020;-86
2021/12/09 05:26:39;;;;;;;11.70;5.03;;;;;;;-0.62;100.00;100133.75;5091408;28;20028;-86
2021/12/09 05:29:05;;;;;;;13.38;5.32;;;;;;;-0.60;100.00;100134.59;5085696;28;20428;-86
2021/12/09 05:34:15;;;;;;;12.35;4.93;;;;;;;-0.60;100.00;100138.94;5086232;28;20047;-86
2021/12/09 05:36:40;;;;;;;8.43;5.28;;;;;;;-0.64;100.00;100135.53;5075697;28;20024;-86
2021/12/09 05:39:13;;;;;;;13.20;5.28;;;;;;;-0.57;100.00;100136.31;5070335;28;20032;-87
2021/12/09 05:41:39;;;;;;;15.27;5.82;;;;;;;-0.59;100.00;100131.06;5089016;28;20392;-86
2021/12/09 05:44:06;;;;;;;15.02;5.95;;;;;;;-0.50;100.00;100140.53;5087698;28;20024;-86
2021/12/09 05:46:34;;;;;;;15.35;5.68;;;;;;;-0.53;100.00;100143.19;5080852;28;20027;-86
2021/12/09 05:48:59;;;;;;;13.98;5.40;;;;;;;-0.55;100.00;100139.75;5074358;28;20028;-86
2021/12/09 05:51:25;;;;;;;11.75;5.20;;;;;;;-0.56;100.00;100145.84;5072376;28;20020;-86
2021/12/09 05:53:52;;;;;;;13.18;5.25;;;;;;;-0.57;100.00;100151.97;5080611;28;20500;-86
2021/12/09 05:56:18;;;;;;;9.30;5.68;;;;;;;-0.58;100.00;100155.50;5070386;28;20043;-87
2021/12/09 05:58:44;;;;;;;10.70;5.47;;;;;;;-0.60;100.00;100154.63;5056469;28;20028;-86
2021/12/09 06:01:09;;;;;;;15.05;5.85;;;;;;;-0.60;100.00;100163.34;5088591;28;20853;-86
2021/12/09 06:03:34;;;;;;;15.60;5.88;;;;;;;-0.57;100.00;100165.06;5089188;28;20020;-86
2021/12/09 06:06:00;;;;;;;10.45;5.18;;;;;;;-0.60;100.00;100158.13;5090514;28;20043;-86
2021/12/09 06:08:26;;;;;;;13.18;5.85;;;;;;;-0.59;100.00;100159.84;5084275;28;20025;-86
2021/12/09 06:10:51;;;;;;;12.70;5.63;;;;;;;-0.67;100.00;100156.50;5089148;28;20043;-87
2021/12/09 06:13:17;;;;;;;13.95;5.97;;;;;;;-0.67;100.00;100153.91;5086255;28;20120;-87
2021/12/09 06:15:43;;;;;;;13.90;5.90;;;;;;;-0.59;100.00;100154.59;5071029;28;20085;-86
2021/12/09 06:18:08;;;;;;;12.75;5.85;;;;;;;-0.62;100.00;100159.91;5081212;28;20052;-86
2021/12/09 06:20:33;;;;;;;13.43;6.88;;;;;;;-0.63;100.00;100162.53;5070150;28;20052;-86
2021/12/09 06:22:59;;;;;;;13.13;6.57;;;;;;;-0.67;100.00;100161.72;5078474;28;20039;-86
2021/12/09 06:25:24;;;;;;;13.48;6.57;;;;;;;-0.70;100.00;100161.78;5089825;28;20039;-86
2021/12/09 06:27:51;;;;;;;14.80;6.90;;;;;;;-0.78;100.00;100161.03;5058531;28;20022;-86
2021/12/09 06:30:18;;;;;;;13.48;6.50;;;;;;;-0.76;100.00;100172.31;5074465;28;20035;-86
2021/12/09 06:32:45;;;;;;;17.67;7.95;;;;;;;-0.82;100.00;100162.81;5073909;28;20025;-86
2021/12/09 06:35:10;;;;;;;22.05;7.32;;;;;;;-0.88;100.00;100160.31;5074398;28;20093;-86
2021/12/09 06:37:39;;;;;;;13.45;7.38;;;;;;;-0.94;100.00;100159.53;5088967;28;20036;-86
2021/12/09 06:40:10;;;;;;;13.80;6.68;;;;;;;-0.93;100.00;100163.88;5087671;28;20443;-87
2021/12/09 06:42:36;;;;;;;17.17;6.90;;;;;;;-0.99;100.00;100154.38;5078565;28;20024;-87
2021/12/09 06:45:02;;;;;;;13.35;5.97;;;;;;;-0.91;100.00;100168.19;5076267;28;20028;-88
2021/12/09 06:47:27;;;;;;;18.63;7.70;;;;;;;-0.92;100.00;100171.69;5078195;28;20036;-88
2021/12/09 06:49:52;;;;;;;30.23;10.20;;;;;;;-0.95;100.00;100170.88;5066388;28;20038;-89
2021/12/09 06:52:18;;;;;;;22.33;7.93;;;;;;;-1.03;100.00;100161.38;5087049;28;20085;-85
2021/12/09 06:54:44;;;;;;;17.10;7.00;;;;;;;-1.02;100.00;100170.09;5087392;28;20028;-85
2021/12/09 06:57:09;;;;;;;19.42;7.97;;;;;;;-1.09;100.00;100169.28;5087450;28;20051;-86
2021/12/09 06:59:35;;;;;;;16.35;6.47;;;;;;;-1.06;100.00;100179.72;5079684;28;20059;-86
2021/12/09 07:02:00;;;;;;;10.20;5.90;;;;;;;-1.08;100.00;100185.84;5083483;28;20032;-86
2021/12/09 07:04:26;;;;;;;15.27;6.43;;;;;;;-1.13;100.00;100193.75;5087558;28;20093;-85
2021/12/09 07:06:51;;;;;;;14.00;6.68;;;;;;;-1.14;100.00;100183.31;5082505;28;20039;-86
2021/12/09 07:09:16;;;;;;;11.60;6.20;;;;;;;-1.18;100.00;100186.84;5084153;28;20485;-86
2021/12/09 07:11:50;;;;;;;17.30;7.28;;;;;;;-1.17;100.00;100197.28;5084834;28;20035;-86
2021/12/09 07:14:15;;;;;;;15.20;7.13;;;;;;;-1.15;100.00;100189.44;5078153;28;20032;-86
2021/12/09 07:16:40;;;;;;;15.65;8.02;;;;;;;-1.12;100.00;100190.25;5085297;28;20384;-86
2021/12/09 07:19:06;;;;;;;15.93;7.95;;;;;;;-1.08;100.00;100184.09;5079342;28;20044;-86
2021/12/09 07:21:31;;;;;;;17.73;7.70;;;;;;;-1.07;100.00;100183.22;5078761;28;20435;-86
2021/12/09 07:23:56;;;;;;;17.02;6.75;;;;;;;-1.05;100.00;100184.03;5065419;28;21535;-86
2021/12/09 07:26:22;;;;;;;16.60;6.82;;;;;;;-1.13;100.00;100179.81;5068352;28;20033;-86
2021/12/09 07:28:48;;;;;;;16.73;7.22;;;;;;;-1.08;100.00;100185.84;5083977;28;20032;-86
2021/12/09 07:31:14;;;;;;;15.40;6.90;;;;;;;-1.12;100.00;100179.81;5076367;28;20032;-86
2021/12/09 07:33:39;;;;;;;16.30;7.28;;;;;;;-1.13;100.00;100185.94;5084499;28;20047;-87
2021/12/09 07:36:05;;;;;;;15.50;7.80;;;;;;;-1.13;100.00;100198.09;5088180;28;20052;-86
2021/12/09 07:38:30;;;;;;;18.58;7.30;;;;;;;-1.15;100.00;100192.03;5085890;28;20024;-87
2021/12/09 07:40:55;;;;;;;17.92;6.88;;;;;;;-1.09;100.00;100205.88;5069880;28;20035;-87
2021/12/09 07:43:21;;;;;;;15.20;7.78;;;;;;;-1.14;100.00;100192.00;5066918;28;20036;-86
2021/12/09 07:45:46;;;;;;;24.55;8.10;;;;;;;-1.08;100.00;100206.75;5070496;28;20025;-86
2021/12/09 07:48:12;;;;;;;15.90;7.63;;;;;;;-1.06;100.00;100202.34;5078266;28;20066;-87
2021/12/09 07:50:38;;;;;;;19.13;7.55;;;;;;;-1.07;100.00;100196.28;5068439;28;20402;-86
2021/12/09 07:53:04;;;;;;;15.38;8.30;;;;;;;-1.02;100.00;100201.44;5053296;28;20115;-87
2021/12/09 07:55:29;;;;;;;18.27;8.20;;;;;;;-0.96;100.00;100200.47;5078072;28;20553;-87
2021/12/09 07:57:55;;;;;;;15.55;7.47;;;;;;;-0.96;100.00;100200.47;5085191;28;20043;-86
2021/12/09 08:00:32;;;;;;;20.67;8.23;;;;;;;-0.96;100.00;100200.47;5082647;28;20300;-86
2021/12/09 08:02:58;;;;;;;20.17;7.60;;;;;;;-0.93;100.00;100211.75;5070850;28;20060;-86
2021/12/09 08:05:25;;;;;;;21.58;8.60;;;;;;;-0.95;100.00;100200.47;5077066;28;20051;-85
2021/12/09 08:07:51;;;;;;;19.05;8.15;;;;;;;-0.93;100.00;100195.22;5068372;28;20433;-85
2021/12/09 08:10:18;;;;;;;20.65;8.85;;;;;;;-0.73;100.00;100202.75;5081048;28;20065;-85
2021/12/09 08:12:43;;;;;;;18.20;9.18;;;;;;;-0.64;100.00;100198.25;5083680;28;20051;-85
2021/12/09 08:15:10;;;;;;;21.30;8.48;;;;;;;-0.49;100.00;100212.84;5083993;28;20457;-85
2021/12/09 08:20:05;;;;;;;27.45;10.13;;;;;;;-0.31;100.00;100217.78;5085598;28;20024;-86
2021/12/09 08:22:31;;;;;;;22.30;9.32;;;;;;;-0.20;100.00;100217.59;5086450;28;20385;-85
2021/12/09 08:24:56;;;;;;;16.85;8.40;;;;;;;-0.16;100.00;100214.03;5087601;28;20023;-86
2021/12/09 08:27:22;;;;;;;18.52;9.20;;;;;;;-0.08;100.00;100206.94;5093843;28;20039;-85
2021/12/09 08:29:48;;;;;;;20.25;9.25;;;;;;;0.05;100.00;100215.44;5097613;28;20252;-87
2021/12/09 08:32:13;;;;;;;17.73;8.73;;;;;;;0.12;100.00;100210.91;5076489;28;20043;-85
2021/12/09 08:34:39;;;;;;;22.08;8.88;;;;;;;0.19;100.00;100207.31;5077424;28;20035;-88
2021/12/09 08:37:04;;;;;;;21.40;8.98;;;;;;;0.28;100.00;100211.50;5081751;28;20102;-85
2021/12/09 08:39:29;;;;;;;19.27;8.82;;;;;;;0.36;100.00;100204.38;5080366;28;20035;-87
2021/12/09 08:41:55;;;;;;;19.73;9.25;;;;;;;0.44;100.00;100215.56;5080066;28;20442;-87
2021/12/09 08:44:20;;;;;;;15.68;8.48;;;;;;;0.46;100.00;100209.41;5076229;28;20430;-87
2021/12/09 08:46:46;;;;;;;21.88;8.93;;;;;;;0.61;100.00;100212.59;5087378;28;20023;-86
2021/12/09 08:49:11;;;;;;;17.55;8.55;;;;;;;0.65;100.00;100206.41;5076557;28;20423;-85
2021/12/09 08:51:37;;;;;;;16.60;8.48;;;;;;;0.76;100.00;100214.94;5080239;28;20040;-86
2021/12/09 08:54:04;;;;;;;18.83;8.45;;;;;;;0.82;100.00;100214.78;5070848;28;20078;-85
2021/12/09 08:56:29;;;;;;;14.82;8.23;;;;;;;0.82;100.00;100209.53;5091674;28;20111;-86
2021/12/09 08:58:55;;;;;;;17.98;9.77;;;;;;;0.86;100.00;100213.81;5086053;28;20431;-86
2021/12/09 09:01:20;;;;;;;17.17;8.40;;;;;;;0.87;100.00;100207.69;5076044;28;20491;-86
2021/12/09 09:03:45;;;;;;;14.60;7.70;;;;;;;0.88;100.00;100211.16;5091418;28;20027;-85
2021/12/09 09:06:11;;;;;;;15.02;7.25;;;;;;;0.89;100.00;100208.53;5091228;28;20028;-85
2021/12/09 09:08:37;;;;;;;18.17;7.75;;;;;;;0.97;100.00;100219.72;5091423;28;20031;-84
2021/12/09 09:11:02;;;;;;;12.13;8.15;;;;;;;1.01;100.00;100220.50;5088723;28;20029;-84
2021/12/09 09:13:28;;;;;;;19.30;8.13;;;;;;;1.04;100.00;100214.31;5066129;28;20036;-84
2021/12/09 09:15:53;;;;;;;14.55;7.88;;;;;;;1.04;100.00;100214.31;5070414;28;20028;-84
2021/12/09 09:18:21;;;;;;;17.40;8.25;;;;;;;1.06;100.00;100212.53;5070499;28;20060;-84
2021/12/09 09:20:47;;;;;;;19.08;8.27;;;;;;;1.14;100.00;100226.34;5072110;28;20069;-83
2021/12/09 09:23:17;;;;;;;18.30;8.55;;;;;;;1.14;100.00;100229.81;5091782;28;20376;-84
2021/12/09 09:25:43;;;;;;;19.92;9.00;;;;;;;1.14;100.00;100226.34;5111581;28;20032;-83
2021/12/09 09:28:09;;;;;;;17.77;9.05;;;;;;;1.17;100.00;100228.88;5085040;28;20031;-82
2021/12/09 09:30:38;;;;;;;16.08;7.95;;;;;;;1.22;100.00;100237.53;5070962;28;20104;-84
2021/12/09 09:33:09;;;;;;;14.30;9.00;;;;;;;1.23;100.00;100231.38;5089463;28;20051;-84
2021/12/09 09:35:37;;;;;;;15.88;8.23;;;;;;;1.22;100.00;100232.28;5091197;28;20024;-84
2021/12/09 09:38:03;;;;;;;16.40;8.20;;;;;;;1.25;100.00;100232.19;5090199;28;20136;-83
2021/12/09 09:40:40;;;;;;;16.10;8.82;;;;;;;1.27;100.00;100240.03;5072351;28;20481;-84
2021/12/09 09:45:54;;;;;;;17.38;8.10;;;;;;;1.27;100.00;100240.91;5089700;28;20162;-84
2021/12/09 09:48:19;;;;;;;19.48;8.32;;;;;;;1.32;100.00;100241.66;5090245;28;20032;-84
2021/12/09 09:50:45;;;;;;;20.55;8.70;;;;;;;1.31;100.00;100247.78;5080121;28;21835;-84
2021/12/09 09:53:10;;;;;;;17.40;8.38;;;;;;;1.33;100.00;100243.34;5090118;28;20036;-84
2021/12/09 09:55:37;;;;;;;15.38;7.75;;;;;;;1.36;100.00;100248.53;5081923;28;20029;-84
2021/12/09 09:58:04;;;;;;;17.08;8.48;;;;;;;1.41;100.00;100246.69;5079511;28;20035;-83
2021/12/09 10:00:30;;;;;;;13.82;8.00;;;;;;;1.46;99.93;100238.69;5087334;28;20024;-84
2021/12/09 10:02:56;;;;;;;12.68;8.35;;;;;;;1.51;100.00;100236.84;5079631;28;20029;-84
2021/12/09 10:05:32;;;;;;;16.40;7.97;;;;;;;1.56;99.79;100240.22;5082718;28;20043;-84
2021/12/09 10:07:58;;;;;;;18.15;9.00;;;;;;;1.56;99.54;100237.59;5064070;28;20028;-83
2021/12/09 10:10:23;;;;;;;17.75;10.55;;;;;;;1.62;99.58;100239.22;5075898;28;20031;-83
2021/12/09 10:12:58;;;;;;;14.80;8.45;;;;;;;1.60;99.13;100230.53;5089203;28;20429;-85
2021/12/09 10:15:40;;;;;;;16.85;9.02;;;;;;;1.69;99.20;100239.03;5071794;28;20020;-83
2021/12/09 10:18:06;;;;;;;14.05;9.10;;;;;;;1.74;98.86;100228.41;5088011;28;20060;-82
2021/12/09 10:20:45;;;;;;;13.75;8.27;;;;;;;1.81;98.61;100234.38;5077102;28;20393;-82
2021/12/09 10:23:33;;;;;;;10.00;7.60;;;;;;;1.82;99.01;100226.47;5089396;28;20378;-83
2021/12/09 10:26:25;;;;;;;13.63;8.40;;;;;;;1.85;98.30;100215.91;5089485;28;20043;-84
2021/12/09 10:29:11;;;;;;;16.52;7.88;;;;;;;1.90;98.52;100216.66;5085735;28;20504;-84
2021/12/09 10:31:48;;;;;;;13.57;7.60;;;;;;;1.99;97.72;100218.16;5089514;28;20286;-83
2021/12/09 10:34:36;;;;;;;13.57;7.68;;;;;;;2.04;97.95;100210.16;5081978;28;20089;-84
2021/12/09 10:37:21;;;;;;;15.80;8.82;;;;;;;2.14;97.86;100216.94;5085993;28;20024;-85
2021/12/09 10:40:08;;;;;;;15.10;8.70;;;;;;;2.36;97.30;100212.81;5074653;28;20062;-84
2021/12/09 10:42:37;;;;;;;11.45;8.23;;;;;;;2.47;96.29;100205.50;5079220;28;20404;-81
2021/12/09 10:45:24;;;;;;;12.27;9.38;;;;;;;2.50;96.26;100205.41;5081158;28;20374;-82
2021/12/09 10:48:03;;;;;;;14.48;8.88;;;;;;;2.63;95.84;100215.56;5086680;28;20527;-80
2021/12/09 10:50:38;;;;;;;16.48;8.30;;;;;;;2.63;95.79;100205.06;5075418;28;20024;-82
2021/12/09 10:55:57;;;;;;;12.18;7.57;;;;;;;2.60;95.34;100203.41;5077637;28;20032;-82
2021/12/09 10:58:28;;;;;;;13.48;7.57;;;;;;;2.60;94.88;100206.03;5087270;28;20430;-83
2021/12/09 11:00:57;;;;;;;13.13;7.47;;;;;;;2.57;94.93;100208.72;5081248;28;20028;-85
2021/12/09 11:03:23;;;;;;;14.18;7.70;;;;;;;2.48;95.32;100203.75;5075382;28;20111;-82
2021/12/09 11:06:01;;;;;;;13.52;7.18;;;;;;;2.47;95.70;100202.88;5084674;28;20060;-82
2021/12/09 11:08:41;;;;;;;13.02;7.55;;;;;;;2.42;95.56;100204.75;5088232;28;20032;-81
2021/12/09 11:11:32;;;;;;;11.20;7.80;;;;;;;2.38;96.01;100215.38;5085653;28;20028;-82
2021/12/09 11:14:08;;;;;;;13.20;7.05;;;;;;;2.33;95.68;100212.03;5090700;28;20430;-83
2021/12/09 11:16:39;;;;;;;11.35;7.10;;;;;;;2.27;95.99;100212.22;5075435;28;20163;-84
2021/12/09 11:19:08;;;;;;;12.98;8.00;;;;;;;2.25;95.94;100205.22;5082637;28;20446;-81
2021/12/09 11:21:40;;;;;;;11.80;8.27;;;;;;;2.22;96.12;100199.22;5081920;28;20029;-81
2021/12/09 11:24:15;;;;;;;16.05;8.07;;;;;;;2.20;96.47;100203.63;5067727;28;20025;-79
2021/12/09 11:26:54;;;;;;;11.73;7.97;;;;;;;2.19;96.45;100197.50;5076554;28;20313;-80